sensor_id;sensor_type;location;lat;lon;timestamp;P1;durP1;ratioP1;P2;durP2;ratioP2
41514;SDS011;27247;48.020;16.720;2023-02-17T00:03:49;71.20;;;30.23;;
41514;SDS011;27247;48.020;16.720;2023-02-17T00:08:00;75.20;;;31.70;;
41514;SDS011;27247;48.020;16.720;2023-02-17T00:12:11;73.53;;;28.67;;
41514;SDS011;27247;48.020;16.720;2023-02-17T00:16:23;74.03;;;29.63;;
41514;SDS011;27247;48.020;16.720;2023-02-17T00:20:34;62.92;;;28.33;;
41514;SDS011;27247;48.020;16.720;2023-02-17T00:24:45;67.95;;;29.38;;
41514;SDS011;27247;48.020;16.720;2023-02-17T00:28:56;70.85;;;30.13;;
41514;SDS011;27247;48.020;16.720;2023-02-17T00:33:08;70.88;;;31.70;;
41514;SDS011;27247;48.020;16.720;2023-02-17T00:37:18;67.38;;;30.63;;
41514;SDS011;27247;48.020;16.720;2023-02-17T00:41:29;68.20;;;30.20;;
41514;SDS011;27247;48.020;16.720;2023-02-17T00:45:39;63.03;;;26.30;;
41514;SDS011;27247;48.020;16.720;2023-02-17T00:49:49;67.97;;;29.30;;
41514;SDS011;27247;48.020;16.720;2023-02-17T00:54:00;67.07;;;29.58;;
41514;SDS011;27247;48.020;16.720;2023-02-17T00:58:10;66.68;;;28.45;;
41514;SDS011;27247;48.020;16.720;2023-02-17T01:02:21;71.95;;;29.90;;
41514;SDS011;27247;48.020;16.720;2023-02-17T01:06:32;65.20;;;27.98;;
41514;SDS011;27247;48.020;16.720;2023-02-17T01:10:45;62.05;;;26.77;;
41514;SDS011;27247;48.020;16.720;2023-02-17T01:14:56;66.05;;;27.55;;
41514;SDS011;27247;48.020;16.720;2023-02-17T01:19:07;64.38;;;27.52;;
41514;SDS011;27247;48.020;16.720;2023-02-17T01:23:20;64.03;;;26.13;;
41514;SDS011;27247;48.020;16.720;2023-02-17T01:27:30;65.45;;;26.30;;
41514;SDS011;27247;48.020;16.720;2023-02-17T01:31:41;63.75;;;27.48;;
41514;SDS011;27247;48.020;16.720;2023-02-17T01:35:51;68.15;;;30.63;;
41514;SDS011;27247;48.020;16.720;2023-02-17T01:40:02;64.55;;;27.15;;
41514;SDS011;27247;48.020;16.720;2023-02-17T01:44:17;69.93;;;29.58;;
41514;SDS011;27247;48.020;16.720;2023-02-17T01:48:31;66.10;;;29.35;;
41514;SDS011;27247;48.020;16.720;2023-02-17T01:52:42;71.93;;;29.85;;
41514;SDS011;27247;48.020;16.720;2023-02-17T01:56:53;67.85;;;29.35;;
41514;SDS011;27247;48.020;16.720;2023-02-17T02:01:06;62.53;;;28.38;;
41514;SDS011;27247;48.020;16.720;2023-02-17T02:05:17;61.83;;;27.77;;
41514;SDS011;27247;48.020;16.720;2023-02-17T02:09:37;63.15;;;27.65;;
41514;SDS011;27247;48.020;16.720;2023-02-17T02:13:51;65.70;;;27.27;;
41514;SDS011;27247;48.020;16.720;2023-02-17T02:35:57;68.00;;;26.48;;
41514;SDS011;27247;48.020;16.720;2023-02-17T02:40:11;68.47;;;28.08;;
41514;SDS011;27247;48.020;16.720;2023-02-17T02:44:25;62.20;;;27.58;;
41514;SDS011;27247;48.020;16.720;2023-02-17T02:48:35;71.75;;;29.30;;
41514;SDS011;27247;48.020;16.720;2023-02-17T03:01:42;67.53;;;28.33;;
41514;SDS011;27247;48.020;16.720;2023-02-17T03:10:19;74.28;;;30.05;;
41514;SDS011;27247;48.020;16.720;2023-02-17T03:14:33;61.92;;;26.95;;
41514;SDS011;27247;48.020;16.720;2023-02-17T03:18:47;78.07;;;31.85;;
41514;SDS011;27247;48.020;16.720;2023-02-17T03:22:57;74.20;;;29.60;;
41514;SDS011;27247;48.020;16.720;2023-02-17T03:27:08;74.88;;;29.10;;
41514;SDS011;27247;48.020;16.720;2023-02-17T03:31:19;75.20;;;30.48;;
41514;SDS011;27247;48.020;16.720;2023-02-17T03:35:29;76.28;;;33.15;;
41514;SDS011;27247;48.020;16.720;2023-02-17T03:39:39;69.75;;;31.85;;
41514;SDS011;27247;48.020;16.720;2023-02-17T03:43:50;78.28;;;32.13;;
41514;SDS011;27247;48.020;16.720;2023-02-17T03:48:00;84.47;;;37.25;;
41514;SDS011;27247;48.020;16.720;2023-02-17T03:52:10;79.68;;;32.53;;
41514;SDS011;27247;48.020;16.720;2023-02-17T03:56:21;76.07;;;32.45;;
41514;SDS011;27247;48.020;16.720;2023-02-17T04:00:31;73.28;;;29.70;;
41514;SDS011;27247;48.020;16.720;2023-02-17T04:04:42;77.03;;;32.45;;
41514;SDS011;27247;48.020;16.720;2023-02-17T04:08:52;66.32;;;27.50;;
41514;SDS011;27247;48.020;16.720;2023-02-17T04:13:02;59.75;;;26.23;;
41514;SDS011;27247;48.020;16.720;2023-02-17T04:17:13;56.20;;;25.48;;
41514;SDS011;27247;48.020;16.720;2023-02-17T04:21:23;59.55;;;25.50;;
41514;SDS011;27247;48.020;16.720;2023-02-17T04:25:34;61.13;;;26.48;;
41514;SDS011;27247;48.020;16.720;2023-02-17T04:29:45;51.83;;;24.13;;
41514;SDS011;27247;48.020;16.720;2023-02-17T04:33:55;59.03;;;25.83;;
41514;SDS011;27247;48.020;16.720;2023-02-17T04:38:06;67.95;;;28.48;;
41514;SDS011;27247;48.020;16.720;2023-02-17T04:42:17;51.85;;;22.88;;
41514;SDS011;27247;48.020;16.720;2023-02-17T04:46:27;57.05;;;25.45;;
41514;SDS011;27247;48.020;16.720;2023-02-17T04:50:38;59.13;;;25.77;;
41514;SDS011;27247;48.020;16.720;2023-02-17T04:54:48;63.33;;;25.90;;
41514;SDS011;27247;48.020;16.720;2023-02-17T04:58:58;54.83;;;25.83;;
41514;SDS011;27247;48.020;16.720;2023-02-17T05:03:09;54.65;;;23.55;;
41514;SDS011;27247;48.020;16.720;2023-02-17T05:07:19;58.28;;;24.83;;
41514;SDS011;27247;48.020;16.720;2023-02-17T05:11:29;61.67;;;26.00;;
41514;SDS011;27247;48.020;16.720;2023-02-17T05:15:41;55.50;;;24.95;;
41514;SDS011;27247;48.020;16.720;2023-02-17T05:19:52;59.78;;;26.17;;
41514;SDS011;27247;48.020;16.720;2023-02-17T05:24:03;55.78;;;24.35;;
41514;SDS011;27247;48.020;16.720;2023-02-17T05:28:13;56.70;;;25.50;;
41514;SDS011;27247;48.020;16.720;2023-02-17T05:32:24;57.30;;;26.02;;
41514;SDS011;27247;48.020;16.720;2023-02-17T05:36:34;55.17;;;24.95;;
41514;SDS011;27247;48.020;16.720;2023-02-17T05:40:45;61.60;;;26.83;;
41514;SDS011;27247;48.020;16.720;2023-02-17T05:44:55;57.80;;;26.08;;
41514;SDS011;27247;48.020;16.720;2023-02-17T05:49:06;65.32;;;28.23;;
41514;SDS011;27247;48.020;16.720;2023-02-17T05:53:16;52.25;;;24.45;;
41514;SDS011;27247;48.020;16.720;2023-02-17T05:57:27;54.08;;;26.35;;
41514;SDS011;27247;48.020;16.720;2023-02-17T06:01:37;48.50;;;23.95;;
41514;SDS011;27247;48.020;16.720;2023-02-17T06:05:47;56.80;;;26.63;;
41514;SDS011;27247;48.020;16.720;2023-02-17T06:09:58;52.90;;;24.70;;
41514;SDS011;27247;48.020;16.720;2023-02-17T06:14:08;53.97;;;24.77;;
41514;SDS011;27247;48.020;16.720;2023-02-17T06:18:19;47.55;;;23.38;;
41514;SDS011;27247;48.020;16.720;2023-02-17T06:22:29;57.08;;;25.73;;
41514;SDS011;27247;48.020;16.720;2023-02-17T06:26:39;53.85;;;25.65;;
41514;SDS011;27247;48.020;16.720;2023-02-17T06:30:50;57.88;;;25.80;;
41514;SDS011;27247;48.020;16.720;2023-02-17T06:35:00;55.92;;;25.65;;
41514;SDS011;27247;48.020;16.720;2023-02-17T06:39:11;52.42;;;25.30;;
41514;SDS011;27247;48.020;16.720;2023-02-17T06:43:21;52.83;;;25.52;;
41514;SDS011;27247;48.020;16.720;2023-02-17T06:47:32;59.25;;;25.85;;
41514;SDS011;27247;48.020;16.720;2023-02-17T06:51:45;53.38;;;24.50;;
41514;SDS011;27247;48.020;16.720;2023-02-17T06:55:56;57.42;;;25.63;;
41514;SDS011;27247;48.020;16.720;2023-02-17T07:00:07;56.03;;;26.90;;
41514;SDS011;27247;48.020;16.720;2023-02-17T07:04:17;56.17;;;26.38;;
41514;SDS011;27247;48.020;16.720;2023-02-17T07:08:28;58.40;;;26.80;;
41514;SDS011;27247;48.020;16.720;2023-02-17T07:12:38;54.88;;;25.65;;
41514;SDS011;27247;48.020;16.720;2023-02-17T07:16:49;52.17;;;25.77;;
41514;SDS011;27247;48.020;16.720;2023-02-17T07:20:59;59.90;;;27.75;;
41514;SDS011;27247;48.020;16.720;2023-02-17T07:25:09;57.60;;;26.20;;
41514;SDS011;27247;48.020;16.720;2023-02-17T07:29:20;53.20;;;26.38;;
41514;SDS011;27247;48.020;16.720;2023-02-17T07:33:31;57.17;;;25.42;;
41514;SDS011;27247;48.020;16.720;2023-02-17T07:37:42;51.30;;;25.63;;
41514;SDS011;27247;48.020;16.720;2023-02-17T07:41:52;56.53;;;27.00;;
41514;SDS011;27247;48.020;16.720;2023-02-17T07:46:03;56.45;;;26.65;;
41514;SDS011;27247;48.020;16.720;2023-02-17T07:50:14;60.17;;;27.27;;
41514;SDS011;27247;48.020;16.720;2023-02-17T07:54:25;58.80;;;26.27;;
41514;SDS011;27247;48.020;16.720;2023-02-17T07:58:36;62.15;;;29.45;;
41514;SDS011;27247;48.020;16.720;2023-02-17T08:02:48;60.92;;;29.10;;
41514;SDS011;27247;48.020;16.720;2023-02-17T08:06:58;50.70;;;26.30;;
41514;SDS011;27247;48.020;16.720;2023-02-17T08:11:13;58.03;;;26.90;;
41514;SDS011;27247;48.020;16.720;2023-02-17T08:15:44;55.47;;;26.40;;
41514;SDS011;27247;48.020;16.720;2023-02-17T08:19:54;52.30;;;25.63;;
41514;SDS011;27247;48.020;16.720;2023-02-17T08:24:05;57.80;;;28.92;;
41514;SDS011;27247;48.020;16.720;2023-02-17T08:28:15;54.88;;;27.20;;
41514;SDS011;27247;48.020;16.720;2023-02-17T08:32:26;54.33;;;26.38;;
41514;SDS011;27247;48.020;16.720;2023-02-17T08:36:37;53.67;;;25.55;;
41514;SDS011;27247;48.020;16.720;2023-02-17T08:40:49;56.03;;;28.15;;
41514;SDS011;27247;48.020;16.720;2023-02-17T08:44:59;50.25;;;26.25;;
41514;SDS011;27247;48.020;16.720;2023-02-17T08:49:10;45.63;;;25.48;;
41514;SDS011;27247;48.020;16.720;2023-02-17T08:53:20;50.40;;;26.98;;
41514;SDS011;27247;48.020;16.720;2023-02-17T08:57:32;47.88;;;24.80;;
41514;SDS011;27247;48.020;16.720;2023-02-17T09:01:43;57.13;;;25.08;;
41514;SDS011;27247;48.020;16.720;2023-02-17T09:05:54;51.95;;;25.30;;
41514;SDS011;27247;48.020;16.720;2023-02-17T09:10:06;45.60;;;24.83;;
41514;SDS011;27247;48.020;16.720;2023-02-17T09:14:17;54.47;;;27.73;;
41514;SDS011;27247;48.020;16.720;2023-02-17T09:18:28;46.33;;;26.52;;
41514;SDS011;27247;48.020;16.720;2023-02-17T09:22:38;44.78;;;25.23;;
41514;SDS011;27247;48.020;16.720;2023-02-17T09:26:49;47.25;;;25.02;;
41514;SDS011;27247;48.020;16.720;2023-02-17T09:35:30;52.38;;;27.00;;
41514;SDS011;27247;48.020;16.720;2023-02-17T09:39:42;53.20;;;28.00;;
41514;SDS011;27247;48.020;16.720;2023-02-17T09:43:53;51.45;;;29.65;;
41514;SDS011;27247;48.020;16.720;2023-02-17T09:48:05;66.47;;;31.30;;
41514;SDS011;27247;48.020;16.720;2023-02-17T09:56:50;60.80;;;31.25;;
41514;SDS011;27247;48.020;16.720;2023-02-17T10:01:08;56.80;;;30.67;;
41514;SDS011;27247;48.020;16.720;2023-02-17T10:05:26;59.17;;;30.55;;
41514;SDS011;27247;48.020;16.720;2023-02-17T10:09:46;56.42;;;29.73;;
41514;SDS011;27247;48.020;16.720;2023-02-17T10:14:01;54.80;;;30.70;;
41514;SDS011;27247;48.020;16.720;2023-02-17T10:18:16;61.60;;;30.52;;
41514;SDS011;27247;48.020;16.720;2023-02-17T10:22:34;54.00;;;29.73;;
41514;SDS011;27247;48.020;16.720;2023-02-17T10:36:06;64.03;;;33.63;;
41514;SDS011;27247;48.020;16.720;2023-02-17T10:40:22;57.28;;;31.80;;
41514;SDS011;27247;48.020;16.720;2023-02-17T10:44:35;59.85;;;31.35;;
41514;SDS011;27247;48.020;16.720;2023-02-17T10:48:47;56.97;;;30.65;;
41514;SDS011;27247;48.020;16.720;2023-02-17T10:53:00;61.05;;;32.75;;
41514;SDS011;27247;48.020;16.720;2023-02-17T10:57:11;62.88;;;32.25;;
41514;SDS011;27247;48.020;16.720;2023-02-17T11:01:24;63.38;;;31.50;;
41514;SDS011;27247;48.020;16.720;2023-02-17T11:05:35;62.30;;;34.13;;
41514;SDS011;27247;48.020;16.720;2023-02-17T11:09:46;56.67;;;29.98;;
41514;SDS011;27247;48.020;16.720;2023-02-17T11:18:24;62.05;;;33.78;;
41514;SDS011;27247;48.020;16.720;2023-02-17T11:22:41;63.03;;;35.22;;
41514;SDS011;27247;48.020;16.720;2023-02-17T11:31:29;64.85;;;34.35;;
41514;SDS011;27247;48.020;16.720;2023-02-17T11:39:51;65.53;;;35.00;;
41514;SDS011;27247;48.020;16.720;2023-02-17T11:44:02;64.47;;;35.35;;
41514;SDS011;27247;48.020;16.720;2023-02-17T11:52:52;67.20;;;35.60;;
41514;SDS011;27247;48.020;16.720;2023-02-17T12:02:05;68.97;;;36.55;;
41514;SDS011;27247;48.020;16.720;2023-02-17T12:06:33;63.42;;;36.00;;
41514;SDS011;27247;48.020;16.720;2023-02-17T12:11:07;68.18;;;36.83;;
41514;SDS011;27247;48.020;16.720;2023-02-17T12:20:06;65.03;;;37.72;;
41514;SDS011;27247;48.020;16.720;2023-02-17T12:34:24;52.95;;;30.70;;
41514;SDS011;27247;48.020;16.720;2023-02-17T12:39:15;49.00;;;29.77;;
41514;SDS011;27247;48.020;16.720;2023-02-17T12:47:55;38.03;;;22.77;;
41514;SDS011;27247;48.020;16.720;2023-02-17T12:52:12;11.55;;;7.60;;
41514;SDS011;27247;48.020;16.720;2023-02-17T13:01:10;6.18;;;1.75;;
41514;SDS011;27247;48.020;16.720;2023-02-17T13:05:45;3.65;;;1.65;;
41514;SDS011;27247;48.020;16.720;2023-02-17T13:10:17;7.70;;;1.40;;
41514;SDS011;27247;48.020;16.720;2023-02-17T13:14:41;2.30;;;1.23;;
41514;SDS011;27247;48.020;16.720;2023-02-17T13:19:04;4.07;;;1.20;;
41514;SDS011;27247;48.020;16.720;2023-02-17T13:27:44;2.58;;;1.02;;
41514;SDS011;27247;48.020;16.720;2023-02-17T13:31:55;2.75;;;1.20;;
41514;SDS011;27247;48.020;16.720;2023-02-17T13:36:12;3.92;;;1.15;;
41514;SDS011;27247;48.020;16.720;2023-02-17T13:40:43;2.22;;;1.35;;
41514;SDS011;27247;48.020;16.720;2023-02-17T13:44:54;2.97;;;1.13;;
41514;SDS011;27247;48.020;16.720;2023-02-17T13:49:14;4.13;;;1.25;;
41514;SDS011;27247;48.020;16.720;2023-02-17T13:53:32;3.65;;;1.08;;
41514;SDS011;27247;48.020;16.720;2023-02-17T13:57:50;3.70;;;1.27;;
41514;SDS011;27247;48.020;16.720;2023-02-17T14:02:02;1.63;;;0.88;;
41514;SDS011;27247;48.020;16.720;2023-02-17T14:06:46;7.05;;;1.58;;
41514;SDS011;27247;48.020;16.720;2023-02-17T14:10:50;4.43;;;1.60;;
41514;SDS011;27247;48.020;16.720;2023-02-17T14:15:01;3.10;;;1.00;;
41514;SDS011;27247;48.020;16.720;2023-02-17T14:19:12;3.00;;;1.10;;
41514;SDS011;27247;48.020;16.720;2023-02-17T14:23:25;3.30;;;1.23;;
41514;SDS011;27247;48.020;16.720;2023-02-17T14:27:46;2.43;;;1.30;;
41514;SDS011;27247;48.020;16.720;2023-02-17T14:31:59;6.40;;;1.65;;
41514;SDS011;27247;48.020;16.720;2023-02-17T14:36:09;2.58;;;0.98;;
41514;SDS011;27247;48.020;16.720;2023-02-17T14:40:21;2.67;;;1.10;;
41514;SDS011;27247;48.020;16.720;2023-02-17T14:44:33;1.52;;;0.80;;
41514;SDS011;27247;48.020;16.720;2023-02-17T14:48:47;2.72;;;0.75;;
41514;SDS011;27247;48.020;16.720;2023-02-17T14:52:58;2.00;;;1.23;;
41514;SDS011;27247;48.020;16.720;2023-02-17T14:57:10;2.88;;;1.10;;
41514;SDS011;27247;48.020;16.720;2023-02-17T15:01:23;1.92;;;1.20;;
41514;SDS011;27247;48.020;16.720;2023-02-17T15:05:40;2.97;;;1.23;;
41514;SDS011;27247;48.020;16.720;2023-02-17T15:09:51;4.18;;;1.30;;
41514;SDS011;27247;48.020;16.720;2023-02-17T15:14:02;3.08;;;1.30;;
41514;SDS011;27247;48.020;16.720;2023-02-17T15:18:14;3.00;;;1.48;;
41514;SDS011;27247;48.020;16.720;2023-02-17T15:22:26;2.58;;;1.20;;
41514;SDS011;27247;48.020;16.720;2023-02-17T15:26:37;1.75;;;1.05;;
41514;SDS011;27247;48.020;16.720;2023-02-17T15:30:49;2.03;;;1.27;;
41514;SDS011;27247;48.020;16.720;2023-02-17T15:35:08;2.17;;;1.40;;
41514;SDS011;27247;48.020;16.720;2023-02-17T15:39:27;3.53;;;1.35;;
41514;SDS011;27247;48.020;16.720;2023-02-17T15:43:38;4.72;;;3.10;;
41514;SDS011;27247;48.020;16.720;2023-02-17T15:47:49;7.30;;;4.63;;
41514;SDS011;27247;48.020;16.720;2023-02-17T15:52:01;5.97;;;3.35;;
41514;SDS011;27247;48.020;16.720;2023-02-17T15:56:13;10.68;;;3.78;;
41514;SDS011;27247;48.020;16.720;2023-02-17T16:00:28;5.35;;;3.17;;
41514;SDS011;27247;48.020;16.720;2023-02-17T16:04:41;7.03;;;3.15;;
41514;SDS011;27247;48.020;16.720;2023-02-17T16:08:52;9.68;;;2.78;;
41514;SDS011;27247;48.020;16.720;2023-02-17T16:13:04;3.30;;;2.20;;
41514;SDS011;27247;48.020;16.720;2023-02-17T16:17:14;3.95;;;1.80;;
41514;SDS011;27247;48.020;16.720;2023-02-17T16:21:26;6.15;;;2.65;;
41514;SDS011;27247;48.020;16.720;2023-02-17T16:25:37;3.95;;;1.80;;
41514;SDS011;27247;48.020;16.720;2023-02-17T16:29:49;5.22;;;1.90;;
41514;SDS011;27247;48.020;16.720;2023-02-17T16:34:00;5.20;;;2.42;;
41514;SDS011;27247;48.020;16.720;2023-02-17T16:38:15;5.30;;;2.53;;
41514;SDS011;27247;48.020;16.720;2023-02-17T16:42:28;4.65;;;2.00;;
41514;SDS011;27247;48.020;16.720;2023-02-17T16:46:39;5.10;;;1.83;;
41514;SDS011;27247;48.020;16.720;2023-02-17T16:51:02;3.13;;;1.73;;
41514;SDS011;27247;48.020;16.720;2023-02-17T16:55:13;3.72;;;1.85;;
41514;SDS011;27247;48.020;16.720;2023-02-17T16:59:25;6.18;;;1.55;;
41514;SDS011;27247;48.020;16.720;2023-02-17T17:03:36;6.10;;;1.75;;
41514;SDS011;27247;48.020;16.720;2023-02-17T17:07:51;7.32;;;2.05;;
41514;SDS011;27247;48.020;16.720;2023-02-17T17:12:01;4.38;;;1.58;;
41514;SDS011;27247;48.020;16.720;2023-02-17T17:16:17;4.57;;;1.60;;
41514;SDS011;27247;48.020;16.720;2023-02-17T17:20:33;3.50;;;1.70;;
41514;SDS011;27247;48.020;16.720;2023-02-17T17:24:46;6.70;;;1.75;;
41514;SDS011;27247;48.020;16.720;2023-02-17T17:28:57;5.30;;;1.70;;
41514;SDS011;27247;48.020;16.720;2023-02-17T17:33:07;5.97;;;1.70;;
41514;SDS011;27247;48.020;16.720;2023-02-17T17:37:28;4.57;;;1.58;;
41514;SDS011;27247;48.020;16.720;2023-02-17T17:41:40;4.53;;;1.60;;
41514;SDS011;27247;48.020;16.720;2023-02-17T17:45:51;4.10;;;1.45;;
41514;SDS011;27247;48.020;16.720;2023-02-17T17:50:04;2.20;;;1.67;;
41514;SDS011;27247;48.020;16.720;2023-02-17T17:54:16;7.07;;;2.00;;
41514;SDS011;27247;48.020;16.720;2023-02-17T17:58:27;6.95;;;2.17;;
41514;SDS011;27247;48.020;16.720;2023-02-17T18:02:40;4.88;;;2.22;;
41514;SDS011;27247;48.020;16.720;2023-02-17T18:06:52;3.83;;;1.90;;
41514;SDS011;27247;48.020;16.720;2023-02-17T18:11:06;9.10;;;2.00;;
41514;SDS011;27247;48.020;16.720;2023-02-17T18:15:17;4.63;;;1.80;;
41514;SDS011;27247;48.020;16.720;2023-02-17T18:19:29;4.57;;;2.67;;
41514;SDS011;27247;48.020;16.720;2023-02-17T18:23:42;4.57;;;2.20;;
41514;SDS011;27247;48.020;16.720;2023-02-17T18:27:54;5.15;;;2.00;;
41514;SDS011;27247;48.020;16.720;2023-02-17T18:32:05;5.13;;;2.25;;
41514;SDS011;27247;48.020;16.720;2023-02-17T18:36:18;2.63;;;1.58;;
41514;SDS011;27247;48.020;16.720;2023-02-17T18:40:31;5.72;;;2.13;;
41514;SDS011;27247;48.020;16.720;2023-02-17T18:44:42;3.63;;;2.22;;
41514;SDS011;27247;48.020;16.720;2023-02-17T18:48:58;2.75;;;2.33;;
41514;SDS011;27247;48.020;16.720;2023-02-17T18:53:09;3.33;;;1.67;;
41514;SDS011;27247;48.020;16.720;2023-02-17T18:57:20;7.07;;;1.55;;
41514;SDS011;27247;48.020;16.720;2023-02-17T19:01:33;2.78;;;1.40;;
41514;SDS011;27247;48.020;16.720;2023-02-17T19:05:50;3.58;;;1.30;;
41514;SDS011;27247;48.020;16.720;2023-02-17T19:10:00;2.40;;;1.70;;
41514;SDS011;27247;48.020;16.720;2023-02-17T19:14:11;2.80;;;1.70;;
41514;SDS011;27247;48.020;16.720;2023-02-17T19:18:22;3.95;;;1.48;;
41514;SDS011;27247;48.020;16.720;2023-02-17T19:22:33;2.80;;;1.40;;
41514;SDS011;27247;48.020;16.720;2023-02-17T19:26:45;2.97;;;1.65;;
41514;SDS011;27247;48.020;16.720;2023-02-17T19:30:56;4.07;;;1.73;;
41514;SDS011;27247;48.020;16.720;2023-02-17T19:35:08;1.88;;;1.60;;
41514;SDS011;27247;48.020;16.720;2023-02-17T19:39:19;2.20;;;1.45;;
41514;SDS011;27247;48.020;16.720;2023-02-17T19:47:51;3.88;;;1.60;;
41514;SDS011;27247;48.020;16.720;2023-02-17T19:52:02;3.90;;;1.33;;
41514;SDS011;27247;48.020;16.720;2023-02-17T19:56:21;2.50;;;1.38;;
41514;SDS011;27247;48.020;16.720;2023-02-17T20:00:33;2.83;;;1.83;;
41514;SDS011;27247;48.020;16.720;2023-02-17T20:04:44;3.83;;;1.30;;
41514;SDS011;27247;48.020;16.720;2023-02-17T20:08:56;4.53;;;1.63;;
41514;SDS011;27247;48.020;16.720;2023-02-17T20:13:12;2.72;;;1.20;;
41514;SDS011;27247;48.020;16.720;2023-02-17T20:17:23;4.28;;;1.08;;
41514;SDS011;27247;48.020;16.720;2023-02-17T20:21:34;2.42;;;0.98;;
41514;SDS011;27247;48.020;16.720;2023-02-17T20:25:47;1.40;;;0.95;;
41514;SDS011;27247;48.020;16.720;2023-02-17T20:29:59;1.40;;;1.25;;
41514;SDS011;27247;48.020;16.720;2023-02-17T20:34:30;1.23;;;0.82;;
41514;SDS011;27247;48.020;16.720;2023-02-17T20:38:43;1.40;;;0.75;;
41514;SDS011;27247;48.020;16.720;2023-02-17T20:42:54;1.75;;;1.00;;
41514;SDS011;27247;48.020;16.720;2023-02-17T20:47:05;1.42;;;1.00;;
41514;SDS011;27247;48.020;16.720;2023-02-17T20:51:16;2.95;;;1.05;;
41514;SDS011;27247;48.020;16.720;2023-02-17T20:55:27;3.25;;;1.08;;
41514;SDS011;27247;48.020;16.720;2023-02-17T20:59:38;1.17;;;1.00;;
41514;SDS011;27247;48.020;16.720;2023-02-17T21:03:49;4.03;;;1.60;;
41514;SDS011;27247;48.020;16.720;2023-02-17T21:07:59;3.10;;;1.30;;
41514;SDS011;27247;48.020;16.720;2023-02-17T21:12:10;1.88;;;1.35;;
41514;SDS011;27247;48.020;16.720;2023-02-17T21:16:23;1.98;;;1.52;;
41514;SDS011;27247;48.020;16.720;2023-02-17T21:20:35;2.40;;;1.20;;
41514;SDS011;27247;48.020;16.720;2023-02-17T21:24:46;1.75;;;1.20;;
41514;SDS011;27247;48.020;16.720;2023-02-17T21:28:56;2.67;;;1.30;;
41514;SDS011;27247;48.020;16.720;2023-02-17T21:33:07;5.72;;;1.30;;
41514;SDS011;27247;48.020;16.720;2023-02-17T21:37:17;3.28;;;1.42;;
41514;SDS011;27247;48.020;16.720;2023-02-17T21:41:28;2.22;;;1.40;;
41514;SDS011;27247;48.020;16.720;2023-02-17T21:45:41;3.03;;;1.40;;
41514;SDS011;27247;48.020;16.720;2023-02-17T21:49:53;2.75;;;1.38;;
41514;SDS011;27247;48.020;16.720;2023-02-17T21:54:04;3.75;;;1.92;;
41514;SDS011;27247;48.020;16.720;2023-02-17T21:58:15;2.78;;;1.58;;
41514;SDS011;27247;48.020;16.720;2023-02-17T22:02:26;3.78;;;1.45;;
41514;SDS011;27247;48.020;16.720;2023-02-17T22:06:38;1.60;;;1.48;;
41514;SDS011;27247;48.020;16.720;2023-02-17T22:10:49;2.88;;;1.40;;
41514;SDS011;27247;48.020;16.720;2023-02-17T22:15:00;2.17;;;1.45;;
41514;SDS011;27247;48.020;16.720;2023-02-17T22:19:12;2.90;;;1.15;;
41514;SDS011;27247;48.020;16.720;2023-02-17T22:23:28;3.78;;;1.90;;
41514;SDS011;27247;48.020;16.720;2023-02-17T22:27:38;2.33;;;1.70;;
41514;SDS011;27247;48.020;16.720;2023-02-17T22:31:49;2.85;;;1.60;;
41514;SDS011;27247;48.020;16.720;2023-02-17T22:36:05;1.63;;;1.40;;
41514;SDS011;27247;48.020;16.720;2023-02-17T22:40:18;2.22;;;1.45;;
41514;SDS011;27247;48.020;16.720;2023-02-17T22:44:28;2.28;;;1.52;;
41514;SDS011;27247;48.020;16.720;2023-02-17T22:48:39;4.13;;;2.58;;
41514;SDS011;27247;48.020;16.720;2023-02-17T22:52:49;4.27;;;2.03;;
41514;SDS011;27247;48.020;16.720;2023-02-17T22:56:59;1.57;;;1.40;;
41514;SDS011;27247;48.020;16.720;2023-02-17T23:01:11;2.83;;;1.88;;
41514;SDS011;27247;48.020;16.720;2023-02-17T23:05:24;2.30;;;1.58;;
41514;SDS011;27247;48.020;16.720;2023-02-17T23:09:34;4.57;;;1.70;;
41514;SDS011;27247;48.020;16.720;2023-02-17T23:13:45;2.00;;;1.37;;
41514;SDS011;27247;48.020;16.720;2023-02-17T23:17:55;3.00;;;1.60;;
41514;SDS011;27247;48.020;16.720;2023-02-17T23:22:07;2.13;;;1.37;;
41514;SDS011;27247;48.020;16.720;2023-02-17T23:26:24;10.43;;;1.55;;
41514;SDS011;27247;48.020;16.720;2023-02-17T23:30:35;2.58;;;1.20;;
41514;SDS011;27247;48.020;16.720;2023-02-17T23:34:45;2.92;;;1.60;;
41514;SDS011;27247;48.020;16.720;2023-02-17T23:38:59;2.53;;;1.20;;
41514;SDS011;27247;48.020;16.720;2023-02-17T23:43:10;3.53;;;1.30;;
41514;SDS011;27247;48.020;16.720;2023-02-17T23:47:20;2.73;;;1.20;;
41514;SDS011;27247;48.020;16.720;2023-02-17T23:51:31;2.50;;;1.75;;
41514;SDS011;27247;48.020;16.720;2023-02-17T23:55:41;4.38;;;1.48;;
41514;SDS011;27247;48.020;16.720;2023-02-17T23:59:52;1.80;;;1.40;;
